createdAt,value
2022-08-17T00:01:58.229Z,63
2022-08-17T00:03:58.235Z,63
2022-08-17T00:05:58.406Z,63
2022-08-17T00:09:58.022Z,62
2022-08-17T00:12:35.206Z,62
2022-08-17T00:17:58.894Z,62
2022-08-17T00:20:02.004Z,62
2022-08-17T00:22:33.522Z,62
2022-08-17T00:24:02.569Z,63
2022-08-17T00:26:00.989Z,63
2022-08-17T00:27:59.337Z,65
2022-08-17T00:29:58.977Z,65
2022-08-17T00:32:00.229Z,65
2022-08-17T00:33:59.549Z,65
2022-08-17T00:36:03.109Z,65
2022-08-17T00:38:00.917Z,66
2022-08-17T00:40:03.348Z,65
2022-08-17T00:42:03.266Z,65
2022-08-17T00:44:00.117Z,64
2022-08-17T00:46:00.330Z,65
2022-08-17T00:50:04.224Z,64
2022-08-17T00:52:00.686Z,62
2022-08-17T00:54:03.185Z,62
2022-08-17T00:56:07.450Z,62
2022-08-17T00:58:04.106Z,62
2022-08-17T01:00:03.636Z,63
2022-08-17T01:01:57.932Z,63
2022-08-17T01:04:01.449Z,63
2022-08-17T01:05:58.485Z,63
2022-08-17T01:08:02.254Z,62
2022-08-17T01:10:03.376Z,62
2022-08-17T01:12:01.620Z,62
2022-08-17T01:14:01.303Z,62
2022-08-17T01:16:01.345Z,62
2022-08-17T01:18:01.980Z,62
2022-08-17T01:20:01.825Z,62
2022-08-17T01:22:05.077Z,63
2022-08-17T01:23:58.948Z,64
2022-08-17T01:26:02.298Z,65
2022-08-17T01:28:02.420Z,65
2022-08-17T01:30:03.511Z,65
2022-08-17T01:32:02.689Z,65
2022-08-17T01:33:59.258Z,65
2022-08-17T01:36:05.580Z,65
2022-08-17T01:38:02.458Z,65
2022-08-17T01:40:05.802Z,64
2022-08-17T01:42:09.248Z,64
2022-08-17T01:44:01.561Z,65
2022-08-17T01:46:03.933Z,64
2022-08-17T01:48:09.596Z,64
2022-08-17T01:50:01.407Z,65
2022-08-17T01:52:02.095Z,65
2022-08-17T01:54:03.438Z,65
2022-08-17T01:56:03.416Z,64
2022-08-17T01:58:03.931Z,64
2022-08-17T02:00:04.160Z,64
2022-08-17T02:02:04.210Z,64
2022-08-17T02:04:04.202Z,64
2022-08-17T02:06:03.225Z,65
2022-08-17T02:10:04.969Z,64
2022-08-17T02:12:38.717Z,64
2022-08-17T02:14:04.900Z,65
2022-08-17T02:16:04.836Z,65
2022-08-17T02:18:11.042Z,65
2022-08-17T02:20:05.254Z,65
2022-08-17T02:22:03.222Z,65
2022-08-17T02:24:04.849Z,66
2022-08-17T02:26:05.356Z,66
2022-08-17T02:28:05.475Z,65
2022-08-17T02:30:05.599Z,66
2022-08-17T02:32:05.650Z,66
2022-08-17T02:34:09.082Z,66
2022-08-17T02:36:06.070Z,66
2022-08-17T02:38:09.112Z,67
2022-08-17T02:40:06.147Z,67
2022-08-17T02:42:06.692Z,68
2022-08-17T02:44:06.634Z,68
2022-08-17T02:46:06.975Z,68
2022-08-17T02:48:09.480Z,68
2022-08-17T02:50:06.941Z,67
2022-08-17T02:52:08.022Z,67
2022-08-17T02:54:39.504Z,67
2022-08-17T02:56:07.325Z,66
2022-08-17T02:58:07.119Z,66
2022-08-17T03:00:07.286Z,66
2022-08-17T03:02:07.536Z,66
2022-08-17T03:04:07.571Z,67
2022-08-17T03:06:14.088Z,69
2022-08-17T03:08:07.672Z,69
2022-08-17T03:10:07.820Z,69
2022-08-17T03:12:08.131Z,69
2022-08-17T03:14:08.046Z,68
2022-08-17T03:16:06.096Z,67
2022-08-17T03:18:06.696Z,67
2022-08-17T03:20:08.277Z,67
2022-08-17T03:22:36.341Z,67
2022-08-17T03:24:11.573Z,68
2022-08-17T03:26:12.243Z,68
2022-08-17T03:28:11.664Z,68
2022-08-17T03:30:08.935Z,68
2022-08-17T03:32:12.331Z,69
2022-08-17T03:34:09.009Z,69
2022-08-17T03:36:09.252Z,69
2022-08-17T03:38:09.565Z,70
2022-08-17T03:42:09.913Z,69
2022-08-17T03:44:09.401Z,70
2022-08-17T03:46:27.391Z,70
2022-08-17T03:48:09.854Z,70
2022-08-17T03:50:10.368Z,70
2022-08-17T03:52:09.718Z,70
2022-08-17T03:54:10.262Z,70
2022-08-17T03:56:09.987Z,70
2022-08-17T03:58:10.538Z,70
2022-08-17T04:00:10.666Z,70
2022-08-17T04:02:10.940Z,70
2022-08-17T04:04:11.489Z,70
2022-08-17T04:06:11.309Z,70
2022-08-17T04:08:14.206Z,71
2022-08-17T04:11:11.010Z,72
2022-08-17T04:15:10.555Z,72
2022-08-17T04:17:10.206Z,73
2022-08-17T04:21:10.218Z,73
2022-08-17T04:23:12.704Z,73
2022-08-17T04:27:11.567Z,72
2022-08-17T04:29:12.393Z,72
2022-08-17T04:31:16.939Z,72
2022-08-17T04:33:11.027Z,72
2022-08-17T04:35:10.648Z,72
2022-08-17T04:37:13.458Z,72
2022-08-17T04:39:15.569Z,73
2022-08-17T04:41:10.771Z,73
2022-08-17T04:43:13.615Z,72
2022-08-17T04:45:10.974Z,72
2022-08-17T04:47:14.522Z,72
2022-08-17T04:51:13.927Z,72
2022-08-17T04:53:11.097Z,71
2022-08-17T04:57:13.873Z,71
2022-08-17T04:59:14.047Z,72
2022-08-17T05:03:14.116Z,72
2022-08-17T05:05:10.848Z,72
2022-08-17T05:07:13.464Z,72
2022-08-17T05:09:10.776Z,72
2022-08-17T05:11:12.787Z,72
2022-08-17T05:13:13.672Z,72
2022-08-17T05:15:13.568Z,71
2022-08-17T05:17:11.222Z,71
2022-08-17T05:19:13.884Z,71
2022-08-17T05:21:13.721Z,71
2022-08-17T05:23:13.155Z,71
2022-08-17T05:27:10.796Z,71
2022-08-17T05:29:14.177Z,71
2022-08-17T05:31:13.580Z,71
2022-08-17T05:33:10.789Z,71
2022-08-17T05:39:15.747Z,70
2022-08-17T05:41:11.008Z,70
2022-08-17T05:45:16.786Z,69
2022-08-17T05:47:10.881Z,69
2022-08-17T05:49:13.681Z,68
2022-08-17T05:51:10.787Z,69
2022-08-17T05:53:11.968Z,70
2022-08-17T05:57:12.957Z,70
2022-08-17T05:59:10.834Z,69
2022-08-17T06:01:13.808Z,64
2022-08-17T06:03:14.040Z,60
2022-08-17T06:05:10.826Z,59
2022-08-17T06:09:10.697Z,56
2022-08-17T06:11:10.209Z,56
2022-08-17T06:13:14.235Z,57
2022-08-17T06:15:17.045Z,56
2022-08-17T06:17:10.711Z,58
2022-08-17T06:19:14.024Z,59
2022-08-17T06:21:10.823Z,59
2022-08-17T06:23:11.259Z,58
2022-08-17T06:25:14.257Z,57
2022-08-17T06:29:18.529Z,56
2022-08-17T06:33:10.808Z,56
2022-08-17T06:35:13.055Z,56
2022-08-17T06:37:13.876Z,56
2022-08-17T06:39:14.312Z,55
2022-08-17T06:41:12.281Z,55
2022-08-17T06:45:10.950Z,55
2022-08-17T06:47:10.815Z,55
2022-08-17T06:51:11.691Z,55
2022-08-17T06:53:10.920Z,55
2022-08-17T06:57:13.934Z,55
2022-08-17T06:59:10.820Z,55
2022-08-17T07:03:13.936Z,55
2022-08-17T07:05:10.819Z,55
2022-08-17T07:07:13.635Z,56
2022-08-17T07:09:10.817Z,56
2022-08-17T07:11:10.258Z,56
2022-08-17T07:13:13.755Z,55
2022-08-17T07:15:14.382Z,55
2022-08-17T07:17:13.227Z,55
2022-08-17T07:21:17.048Z,54
2022-08-17T07:23:12.990Z,54
2022-08-17T07:27:10.925Z,54
2022-08-17T07:29:09.264Z,54
2022-08-17T07:33:12.533Z,53
2022-08-17T07:35:11.256Z,53
2022-08-17T07:39:13.530Z,54
2022-08-17T07:41:10.833Z,54
2022-08-17T07:45:10.818Z,53
2022-08-17T07:47:14.009Z,53
2022-08-17T07:51:10.877Z,53
2022-08-17T07:53:10.387Z,53
2022-08-17T07:57:10.818Z,52
2022-08-17T07:59:13.932Z,52
2022-08-17T08:01:14.244Z,52
2022-08-17T08:03:14.375Z,52
2022-08-17T08:05:11.735Z,52
2022-08-17T08:07:13.967Z,52
2022-08-17T08:09:13.835Z,53
2022-08-17T08:11:10.900Z,53
2022-08-17T08:15:10.790Z,52
2022-08-17T08:17:10.774Z,52
2022-08-17T08:21:12.362Z,52
2022-08-17T08:23:11.136Z,52
2022-08-17T08:25:13.766Z,51
2022-08-17T08:27:10.889Z,51
2022-08-17T08:29:14.001Z,51
2022-08-17T08:31:13.947Z,51
2022-08-17T08:33:10.818Z,50
2022-08-17T08:35:10.943Z,50
2022-08-17T08:37:16.159Z,50
2022-08-17T08:39:10.766Z,49
2022-08-17T08:41:10.943Z,47
2022-08-17T08:43:13.306Z,47
2022-08-17T08:45:10.801Z,48
2022-08-17T08:47:15.601Z,49
2022-08-17T08:51:10.791Z,49
2022-08-17T08:53:13.759Z,50
2022-08-17T08:57:25.331Z,50
2022-08-17T08:59:09.313Z,50
2022-08-17T09:03:14.017Z,50
2022-08-17T09:05:14.107Z,50
2022-08-17T09:07:13.849Z,50
2022-08-17T09:09:10.825Z,50
2022-08-17T09:11:14.044Z,50
2022-08-17T09:13:17.356Z,49
2022-08-17T09:15:13.047Z,49
2022-08-17T09:17:11.210Z,49
2022-08-17T09:21:14.195Z,47
2022-08-17T09:23:10.888Z,47
2022-08-17T09:27:10.894Z,47
2022-08-17T09:29:11.107Z,47
2022-08-17T09:33:12.590Z,47
2022-08-17T09:35:10.938Z,48
2022-08-17T09:37:13.696Z,48
2022-08-17T09:39:10.179Z,48
2022-08-17T09:41:14.048Z,47
2022-08-17T09:45:10.825Z,47
2022-08-17T09:47:10.981Z,48
2022-08-17T09:49:13.872Z,47
2022-08-17T09:51:10.327Z,48
2022-08-17T09:53:11.034Z,48
2022-08-17T09:55:14.078Z,47
2022-08-17T09:57:28.980Z,48
2022-08-17T09:59:10.791Z,48
2022-08-17T10:01:14.190Z,48
2022-08-17T10:03:11.158Z,48
2022-08-17T10:05:14.009Z,47
2022-08-17T10:07:13.938Z,46
2022-08-17T10:09:11.013Z,46
2022-08-17T10:11:11.124Z,46
2022-08-17T10:13:14.080Z,47
2022-08-17T10:15:11.925Z,45
2022-08-17T10:17:11.053Z,46
2022-08-17T10:21:09.006Z,46
2022-08-17T10:23:11.233Z,46
2022-08-17T10:27:11.144Z,47
2022-08-17T10:29:11.001Z,46
2022-08-17T10:31:34.102Z,46
2022-08-17T10:33:11.136Z,45
2022-08-17T10:35:11.138Z,46
2022-08-17T10:37:14.179Z,46
2022-08-17T10:39:14.134Z,46
2022-08-17T10:41:14.299Z,46
2022-08-17T10:43:14.151Z,46
2022-08-17T10:45:11.114Z,45
2022-08-17T10:47:11.131Z,44
2022-08-17T10:51:10.917Z,45
2022-08-17T10:53:11.168Z,45
2022-08-17T10:57:13.958Z,46
2022-08-17T10:59:17.604Z,46
2022-08-17T11:01:13.877Z,46
2022-08-17T11:03:11.212Z,46
2022-08-17T11:05:11.090Z,46
2022-08-17T11:09:13.934Z,46
2022-08-17T11:11:13.341Z,44
2022-08-17T11:15:11.244Z,44
2022-08-17T11:17:10.841Z,44
2022-08-17T11:19:14.360Z,44
2022-08-17T11:21:10.712Z,44
2022-08-17T11:23:08.302Z,45
2022-08-17T11:25:13.863Z,45
2022-08-17T11:27:12.006Z,45
2022-08-17T11:29:12.111Z,45
2022-08-17T11:31:14.059Z,45
2022-08-17T11:33:11.517Z,44
2022-08-17T11:35:14.342Z,45
2022-08-17T11:39:12.622Z,45
2022-08-17T11:41:10.942Z,45
2022-08-17T11:43:14.119Z,44
2022-08-17T11:45:12.409Z,45
2022-08-17T11:47:11.112Z,44
2022-08-17T11:51:14.473Z,45
2022-08-17T11:53:10.670Z,45
2022-08-17T11:57:11.127Z,45
2022-08-17T11:59:10.992Z,45
2022-08-17T12:01:16.198Z,45
2022-08-17T12:03:11.231Z,45
2022-08-17T12:05:11.798Z,44
2022-08-17T12:09:14.029Z,44
2022-08-17T12:11:11.199Z,45
2022-08-17T12:15:11.996Z,45
2022-08-17T12:17:11.204Z,44
2022-08-17T12:21:11.106Z,44
2022-08-17T12:23:13.959Z,44
2022-08-17T12:27:10.986Z,44
2022-08-17T12:29:17.970Z,44
2022-08-17T12:31:17.132Z,44
2022-08-17T12:33:25.181Z,44
2022-08-17T12:35:11.244Z,44
2022-08-17T12:37:13.912Z,43
2022-08-17T12:39:13.187Z,44
2022-08-17T12:41:11.188Z,44
2022-08-17T12:43:14.000Z,44
